Terminal Aerodrome Forecast
Issued by NWS

Home | Current Version | Previous Version | Text Only | Print | Product List | Glossary On
Versions: 1 2 3 4 5 6 7 8 9 10 11 12 13 14 15 16 17 18
000
FTUS44 KBMX 241100
TAFANB
TAF
KANB 241133Z 2412/2512 23010KT 6SM BR BKN025
     FM241500 25010KT P6SM BKN040
     FM242300 28005KT P6SM SCT150=

USA.gov is the U.S. government's official web portal to all federal, state and local government web resources and services.